Pintail — WDF5177 — position and weather

sailwx.info

Track history (hours):
 
Tides and Currents Weather Stations Pressure Air Temp Water Temp Dewpoint Dewpoint Depression Visibility Wind Speed Wind Dir Waves Ship Positions

Pintail

Owner: Pintail Marine Services, Inc, Friday Harbor, WA. More information available from US FCC via Universal Licensing System and Coast Guard Vessel Documentation Center.

Last reported at 2014-Oct-01 19:33 UTC. Time now 2014-Oct-01 20:19 UTC.
Position N 48°32' W 122°60'.

Length 19 m.

Type: Towing. MMSI: 367460260.

Date/timePositionNaut miles runAvg speedWind from/ knotsBaromVisibWave heightAir tempDewpointWater temp
2014-Oct-01 19:33N 48°32' W 122°60'0 0.0
2014-Oct-01 18:30N 48°32' W 122°60'0 0.0
2014-Oct-01 17:33N 48°32' W 122°60'0 0.0
2014-Oct-01 16:30N 48°32' W 122°60'0 0.0
2014-Oct-01 15:33N 48°32' W 122°60'0 0.0
2014-Oct-01 14:33N 48°32' W 122°60'0 0.0
2014-Oct-01 13:33N 48°32' W 122°60'0 0.0
2014-Oct-01 12:33N 48°32' W 122°60'0 0.0
2014-Oct-01 11:33N 48°32' W 122°60'0 0.0
2014-Oct-01 10:33N 48°32' W 122°60'0 0.0
2014-Oct-01 09:33N 48°32' W 122°60'0 0.0
2014-Oct-01 08:33N 48°32' W 122°60'0 0.0
2014-Oct-01 07:33N 48°32' W 122°60'0 0.0
2014-Oct-01 06:30N 48°32' W 122°60'0 0.0
2014-Oct-01 05:33N 48°32' W 122°60'0 0.0
2014-Oct-01 04:30N 48°32' W 122°60'0 0.0
2014-Oct-01 03:33N 48°32' W 122°60'0 0.0
2014-Oct-01 02:33N 48°32' W 122°60'0 0.0
2014-Oct-01 01:33N 48°32' W 122°60'0 0.0
2014-Oct-01 00:28N 48°32' W 122°60'0 0.1
2014-Sep-30 23:33N 48°32' W 122°60'0 0.0
2014-Sep-30 22:30N 48°32' W 122°60'0 0.0
2014-Sep-30 21:34N 48°32' W 122°60'0 0.0
2014-Sep-30 20:34N 48°32' W 122°60'0 0.0
2014-Sep-30 19:33N 48°32' W 122°60'0 0.0
2014-Sep-30 18:33N 48°32' W 122°60'0 0.0
2014-Sep-30 17:33N 48°32' W 122°60'0 0.0
2014-Sep-30 16:28N 48°32' W 122°60'0 0.0
2014-Sep-30 15:31N 48°32' W 122°60'0 0.0
2014-Sep-30 14:31N 48°32' W 122°60'0 0.0
2014-Sep-30 13:31N 48°32' W 122°60'0 0.0
2014-Sep-30 12:28N 48°32' W 122°60'0 0.0
2014-Sep-30 11:28N 48°32' W 122°60'0 0.0
2014-Sep-30 10:31N 48°32' W 122°60'0 0.0
2014-Sep-30 09:31N 48°32' W 122°60'0 0.0
2014-Sep-30 08:33N 48°32' W 122°60'0 0.0
2014-Sep-30 07:25N 48°32' W 122°60'0 0.0
2014-Sep-30 06:31N 48°32' W 122°60'0 0.0
2014-Sep-30 05:31N 48°32' W 122°60'0 0.0
2014-Sep-30 04:31N 48°32' W 122°60'0 0.0
2014-Sep-30 03:31N 48°32' W 122°60'0 0.0
2014-Sep-30 02:33N 48°32' W 122°60'0 0.0
2014-Sep-30 01:33N 48°32' W 122°60'0 0.0
2014-Sep-30 00:33N 48°32' W 122°60'0 0.0
2014-Sep-29 23:33N 48°32' W 122°60'0 0.0
2014-Sep-29 22:31N 48°32' W 122°60'0 0.0
2014-Sep-29 21:31N 48°32' W 122°60'0 0.4
2014-Sep-29 20:33N 48°32' W 122°60'6 5.8
2014-Sep-29 19:33N 48°34' W 122°51'6 5.8
2014-Sep-29 18:33N 48°32' W 122°43'5 4.3
2014-Sep-29 17:30N 48°31' W 122°36'6 4.8
2014-Sep-29 16:14N 48°31' W 122°46'4 6.5
2014-Sep-29 15:32N 48°34' W 122°51'6 5.8
2014-Sep-29 14:34N 48°32' W 122°60'0 0.4
2014-Sep-29 13:31N 48°32' W 122°60'0 0.0
2014-Sep-29 12:28N 48°32' W 122°60'0 0.0
2014-Sep-29 11:31N 48°32' W 122°60'0 0.0
2014-Sep-29 10:31N 48°32' W 122°60'0 0.0
2014-Sep-29 09:31N 48°32' W 122°60'0 0.0
2014-Sep-29 08:31N 48°32' W 122°60'0 0.0
2014-Sep-29 07:31N 48°32' W 122°60'0 0.0
2014-Sep-29 06:28N 48°32' W 122°60'0 0.0
2014-Sep-29 05:31N 48°32' W 122°60'0 0.0
2014-Sep-29 04:28N 48°32' W 122°60'0 0.0
2014-Sep-29 03:31N 48°32' W 122°60'0 0.0
2014-Sep-29 02:25N 48°32' W 122°60'0 0.0
2014-Sep-29 01:31N 48°32' W 122°60'0 0.0
2014-Sep-29 00:33N 48°32' W 122°60'0 0.0
2014-Sep-28 23:33N 48°32' W 122°60'0 0.0
2014-Sep-28 22:33N 48°32' W 122°60'0 0.0
2014-Sep-28 21:33N 48°32' W 122°60'0 0.0
2014-Sep-28 20:30N 48°32' W 122°60'0 0.0
2014-Sep-28 19:33N 48°32' W 122°60'0 0.0
2014-Sep-28 18:30N 48°32' W 122°60'0 0.0
2014-Sep-28 17:33N 48°32' W 122°60'0 0.0
2014-Sep-28 16:30N 48°32' W 122°60'0 0.0
2014-Sep-28 15:33N 48°32' W 122°60'0 0.0
2014-Sep-28 14:33N 48°32' W 122°60'0 0.0
2014-Sep-28 13:33N 48°32' W 122°60'0 0.0
2014-Sep-28 12:33N 48°32' W 122°60'0 0.0
2014-Sep-28 11:33N 48°32' W 122°60'0 0.0
2014-Sep-28 10:33N 48°32' W 122°60'0 0.0
2014-Sep-28 09:33N 48°32' W 122°60'0 0.0
2014-Sep-28 08:31N 48°32' W 122°60'0 0.0
2014-Sep-28 07:33N 48°32' W 122°60'0 0.0
2014-Sep-28 06:31N 48°32' W 122°60'0 0.0
2014-Sep-28 05:31N 48°32' W 122°60'0 0.0
2014-Sep-28 04:30N 48°32' W 122°60'0 0.0
2014-Sep-28 03:33N 48°32' W 122°60'0 0.0
2014-Sep-28 02:33N 48°32' W 122°60'0 0.0
2014-Sep-28 01:33N 48°32' W 122°60'0 0.0
2014-Sep-28 00:33N 48°32' W 122°60'0 0.0
2014-Sep-27 23:33N 48°32' W 122°60'0 0.0
2014-Sep-27 22:33N 48°32' W 122°60'0 0.0
2014-Sep-27 21:33N 48°32' W 122°60'0 0.0
2014-Sep-27 20:33N 48°32' W 122°60'0 0.0
2014-Sep-27 19:30N 48°32' W 122°60'0 0.0
2014-Sep-27 18:33N 48°32' W 122°60'0 0.0
2014-Sep-27 17:33N 48°32' W 122°60'0 0.0
2014-Sep-27 16:33N 48°32' W 122°60'0 0.0
2014-Sep-27 15:33N 48°32' W 122°60'0 0.0
2014-Sep-27 14:33N 48°32' W 122°60'0 0.0
2014-Sep-27 13:33N 48°32' W 122°60'0 0.0
2014-Sep-27 12:33N 48°32' W 122°60'0 0.0
2014-Sep-27 11:33N 48°32' W 122°60'0 0.0
2014-Sep-27 10:33N 48°32' W 122°60'0 0.0
2014-Sep-27 09:34N 48°32' W 122°60'0 0.0
2014-Sep-27 08:34N 48°32' W 122°60'0 0.0
2014-Sep-27 07:34N 48°32' W 122°60'0 0.0
2014-Sep-27 06:31N 48°32' W 122°60'0 0.0
2014-Sep-27 05:31N 48°32' W 122°60'0 0.0
2014-Sep-27 04:31N 48°32' W 122°60'0 0.0
2014-Sep-27 03:31N 48°32' W 122°60'0 0.0
2014-Sep-27 02:31N 48°32' W 122°60'0 0.0
2014-Sep-27 01:28N 48°32' W 122°60'0 0.0
2014-Sep-27 00:31N 48°32' W 122°60'0 0.0
2014-Sep-26 23:31N 48°32' W 122°60'0 0.0
2014-Sep-26 22:28N 48°32' W 122°60'0 0.0
2014-Sep-26 21:31N 48°32' W 122°60'0 0.0
2014-Sep-26 20:31N 48°32' W 122°60'0 0.0
2014-Sep-26 19:31N 48°32' W 122°60'0 0.0
2014-Sep-26 18:31N 48°32' W 122°60'0 0.0
2014-Sep-26 17:31N 48°32' W 122°60'0 0.0
2014-Sep-26 16:31N 48°32' W 122°60'0 0.0
2014-Sep-26 15:31N 48°32' W 122°60'0 0.0
2014-Sep-26 14:31N 48°32' W 122°60'0 0.0
2014-Sep-26 13:31N 48°32' W 122°60'0 0.0
2014-Sep-26 12:31N 48°32' W 122°60'0 0.0
2014-Sep-26 11:31N 48°32' W 122°60'0 0.0
2014-Sep-26 10:31N 48°32' W 122°60'0 0.0
2014-Sep-26 09:31N 48°32' W 122°60'0 0.0
2014-Sep-26 08:25N 48°32' W 122°60'0 0.0
2014-Sep-26 07:31N 48°32' W 122°60'0 0.0
2014-Sep-26 06:31N 48°32' W 122°60'0 0.0
2014-Sep-26 05:31N 48°32' W 122°60'0 0.0
2014-Sep-26 04:28N 48°32' W 122°60'0 0.0
2014-Sep-26 03:31N 48°32' W 122°60'0 0.0
2014-Sep-26 02:31N 48°32' W 122°60'2 2.2
2014-Sep-26 01:33N 48°33' W 122°57'5 4.6
2014-Sep-26 00:33N 48°31' W 122°51'2 1.2
2014-Sep-25 23:14N 48°30' W 122°50'4 6.1
2014-Sep-25 22:33N 48°34' W 122°52'6 5.7
2014-Sep-25 21:33N 48°32' W 122°60'2 2.3
2014-Sep-25 20:33N 48°33' W 122°57'5 5.0
2014-Sep-25 19:33N 48°32' W 122°49'7 6.5
2014-Sep-25 18:29N 48°32' W 122°39'1 0.6
2014-Sep-25 17:33N 48°31' W 122°38'6 6.0
2014-Sep-25 16:31N 48°32' W 122°47'4 3.6
2014-Sep-25 15:33N 48°34' W 122°52'5 4.6
2014-Sep-25 14:33N 48°32' W 122°58'1 1.3
2014-Sep-25 13:31N 48°32' W 122°60'0 0.0
2014-Sep-25 12:31N 48°32' W 122°60'0 0.0
2014-Sep-25 11:28N 48°32' W 122°60'0 0.0
2014-Sep-25 10:28N 48°32' W 122°60'0 0.0
2014-Sep-25 09:28N 48°32' W 122°60'0 0.0
2014-Sep-25 08:28N 48°32' W 122°60'0 0.0
2014-Sep-25 07:31N 48°32' W 122°60'0 0.0
2014-Sep-25 06:31N 48°32' W 122°60'0 0.0
2014-Sep-25 05:31N 48°32' W 122°60'0 0.0
2014-Sep-25 04:31N 48°32' W 122°60'0 0.0
2014-Sep-25 03:28N 48°32' W 122°60'0 0.0
2014-Sep-25 02:31N 48°32' W 122°60'0 0.0
2014-Sep-25 01:25N 48°32' W 122°60'0 0.0
2014-Sep-25 00:31N 48°32' W 122°60'0 0.0
2014-Sep-24 23:31N 48°32' W 122°60'0 0.0
2014-Sep-24 22:31N 48°32' W 122°60'1 0.8
2014-Sep-24 21:33N 48°32' W 123°01'2 1.5
2014-Sep-24 20:31N 48°32' W 122°58'0 0.0
2014-Sep-24 19:31N 48°32' W 122°58'0 0.0
2014-Sep-24 18:33N 48°32' W 122°58'1 1.0
2014-Sep-24 17:31N 48°32' W 122°60'0 0.0
2014-Sep-24 16:31N 48°32' W 122°60'0 0.0
2014-Sep-24 15:31N 48°32' W 122°60'0 0.0
2014-Sep-24 14:31N 48°32' W 122°60'0 0.0
2014-Sep-24 13:31N 48°32' W 122°60'0 0.0
2014-Sep-24 12:31N 48°32' W 122°60'0 0.0
2014-Sep-24 11:28N 48°32' W 122°60'0 0.0
2014-Sep-24 10:31N 48°32' W 122°60'0 0.0
2014-Sep-24 09:28N 48°32' W 122°60'0 0.0
2014-Sep-24 08:29N 48°32' W 122°60'0 0.0
2014-Sep-24 07:32N 48°32' W 122°60'0 0.0
2014-Sep-24 06:32N 48°32' W 122°60'0 0.0
2014-Sep-24 05:29N 48°32' W 122°60'0 0.0
2014-Sep-24 04:32N 48°32' W 122°60'0 0.0
2014-Sep-24 03:31N 48°32' W 122°60'0 0.0
2014-Sep-24 02:31N 48°32' W 122°60'0 0.0
2014-Sep-24 01:31N 48°32' W 122°60'0 0.0
2014-Sep-24 00:31N 48°32' W 122°60'0 0.0
2014-Sep-23 23:31N 48°32' W 122°60'0 0.0
2014-Sep-23 22:31N 48°32' W 122°60'0 0.0
2014-Sep-23 21:29N 48°32' W 122°60'0 0.0
2014-Sep-23 20:32N 48°32' W 122°60'4 4.0
2014-Sep-23 19:33N 48°34' W 122°55'5 5.3
2014-Sep-23 18:32N 48°32' W 122°47'7 6.6
2014-Sep-23 17:32N 48°31' W 122°37'3 3.0
2014-Sep-23 16:28N 48°32' W 122°42'7 6.1
2014-Sep-23 15:21N 48°34' W 122°52'5 5.7
2014-Sep-23 14:32N 48°33' W 122°59'1 1.2
2014-Sep-23 13:31N 48°32' W 122°60'0 0.0
2014-Sep-23 12:31N 48°32' W 122°60'0 0.0
2014-Sep-23 11:31N 48°32' W 122°60'0 0.0
2014-Sep-23 10:31N 48°32' W 122°60'0 0.0
2014-Sep-23 09:31N 48°32' W 122°60'0 0.0
2014-Sep-23 08:31N 48°32' W 122°60'0 0.0
2014-Sep-23 07:31N 48°32' W 122°60'0 0.0
2014-Sep-23 06:31N 48°32' W 122°60'0 0.0
2014-Sep-23 05:31N 48°32' W 122°60'0 0.0
2014-Sep-23 04:04N 48°32' W 122°60'0 0.0
2014-Sep-23 03:07N 48°32' W 122°60'0 0.0
2014-Sep-23 02:31N 48°32' W 122°60'0 0.0
2014-Sep-23 01:33N 48°32' W 122°60'0 0.0
2014-Sep-23 00:33N 48°32' W 122°60'2 2.3
2014-Sep-22 23:31N 48°34' W 123°01'6 4.9
2014-Sep-22 22:19N 48°36' W 123°09'7 1.6
2014-Sep-22 18:07N 48°33' W 123°00'1 2.4
2014-Sep-22 17:31N 48°32' W 122°60'0 0.0
2014-Sep-22 16:31N 48°32' W 122°60'0 0.0
2014-Sep-22 15:31N 48°32' W 122°60'0 0.0
2014-Sep-22 14:28N 48°32' W 122°60'0 0.0
2014-Sep-22 13:31N 48°32' W 122°60'0 0.0
2014-Sep-22 12:32N 48°32' W 122°60'0 0.0
2014-Sep-22 11:32N 48°32' W 122°60'0 0.0
2014-Sep-22 10:31N 48°32' W 122°60'0 0.0
2014-Sep-22 09:31N 48°32' W 122°60'0 0.0
2014-Sep-22 08:31N 48°32' W 122°60'0 0.0
2014-Sep-22 07:31N 48°32' W 122°60'0 0.0
2014-Sep-22 06:31N 48°32' W 122°60'0 0.0
2014-Sep-22 05:28N 48°32' W 122°60'0 0.0
2014-Sep-22 04:31N 48°32' W 122°60'0 0.0
2014-Sep-22 03:31N 48°32' W 122°60'0 0.0
2014-Sep-22 02:31N 48°32' W 122°60'0 0.0
2014-Sep-22 01:31N 48°32' W 122°60'0 0.0
2014-Sep-22 00:28N 48°32' W 122°60'0 0.0
2014-Sep-21 23:31N 48°32' W 122°60'0 0.0
2014-Sep-21 22:31N 48°32' W 122°60'0 0.0
2014-Sep-21 21:26N 48°32' W 122°60'0 0.1
2014-Sep-21 20:33N 48°32' W 122°60'  
Track history (hours):
 
Tides and Currents Weather Stations Pressure Air Temp Water Temp Dewpoint Dewpoint Depression Visibility Wind Speed Wind Dir Waves Ship Positions

Pintail

Owner: Pintail Marine Services, Inc, Friday Harbor, WA. More information available from US FCC via Universal Licensing System and Coast Guard Vessel Documentation Center.

Last reported at 2014-Oct-01 19:33 UTC. Time now 2014-Oct-01 20:19 UTC.
Position N 48°32' W 122°60'.

Length 19 m.

Type: Towing. MMSI: 367460260.

Date/timePositionNaut miles runAvg speedWind from/ knotsBaromVisibWave heightAir tempDewpointWater temp
2014-Oct-01 19:33N 48°32' W 122°60'0 0.0
2014-Oct-01 18:30N 48°32' W 122°60'0 0.0
2014-Oct-01 17:33N 48°32' W 122°60'0 0.0
2014-Oct-01 16:30N 48°32' W 122°60'0 0.0
2014-Oct-01 15:33N 48°32' W 122°60'0 0.0
2014-Oct-01 14:33N 48°32' W 122°60'0 0.0
2014-Oct-01 13:33N 48°32' W 122°60'0 0.0
2014-Oct-01 12:33N 48°32' W 122°60'0 0.0
2014-Oct-01 11:33N 48°32' W 122°60'0 0.0
2014-Oct-01 10:33N 48°32' W 122°60'0 0.0
2014-Oct-01 09:33N 48°32' W 122°60'0 0.0
2014-Oct-01 08:33N 48°32' W 122°60'0 0.0
2014-Oct-01 07:33N 48°32' W 122°60'0 0.0
2014-Oct-01 06:30N 48°32' W 122°60'0 0.0
2014-Oct-01 05:33N 48°32' W 122°60'0 0.0
2014-Oct-01 04:30N 48°32' W 122°60'0 0.0
2014-Oct-01 03:33N 48°32' W 122°60'0 0.0
2014-Oct-01 02:33N 48°32' W 122°60'0 0.0
2014-Oct-01 01:33N 48°32' W 122°60'0 0.0
2014-Oct-01 00:28N 48°32' W 122°60'0 0.1
2014-Sep-30 23:33N 48°32' W 122°60'0 0.0
2014-Sep-30 22:30N 48°32' W 122°60'0 0.0
2014-Sep-30 21:34N 48°32' W 122°60'0 0.0
2014-Sep-30 20:34N 48°32' W 122°60'0 0.0
2014-Sep-30 19:33N 48°32' W 122°60'0 0.0
2014-Sep-30 18:33N 48°32' W 122°60'0 0.0
2014-Sep-30 17:33N 48°32' W 122°60'0 0.0
2014-Sep-30 16:28N 48°32' W 122°60'0 0.0
2014-Sep-30 15:31N 48°32' W 122°60'0 0.0
2014-Sep-30 14:31N 48°32' W 122°60'0 0.0
2014-Sep-30 13:31N 48°32' W 122°60'0 0.0
2014-Sep-30 12:28N 48°32' W 122°60'0 0.0
2014-Sep-30 11:28N 48°32' W 122°60'0 0.0
2014-Sep-30 10:31N 48°32' W 122°60'0 0.0
2014-Sep-30 09:31N 48°32' W 122°60'0 0.0
2014-Sep-30 08:33N 48°32' W 122°60'0 0.0
2014-Sep-30 07:25N 48°32' W 122°60'0 0.0
2014-Sep-30 06:31N 48°32' W 122°60'0 0.0
2014-Sep-30 05:31N 48°32' W 122°60'0 0.0
2014-Sep-30 04:31N 48°32' W 122°60'0 0.0
2014-Sep-30 03:31N 48°32' W 122°60'0 0.0
2014-Sep-30 02:33N 48°32' W 122°60'0 0.0
2014-Sep-30 01:33N 48°32' W 122°60'0 0.0
2014-Sep-30 00:33N 48°32' W 122°60'0 0.0
2014-Sep-29 23:33N 48°32' W 122°60'0 0.0
2014-Sep-29 22:31N 48°32' W 122°60'0 0.0
2014-Sep-29 21:31N 48°32' W 122°60'0 0.4
2014-Sep-29 20:33N 48°32' W 122°60'6 5.8
2014-Sep-29 19:33N 48°34' W 122°51'6 5.8
2014-Sep-29 18:33N 48°32' W 122°43'5 4.3
2014-Sep-29 17:30N 48°31' W 122°36'6 4.8
2014-Sep-29 16:14N 48°31' W 122°46'4 6.5
2014-Sep-29 15:32N 48°34' W 122°51'6 5.8
2014-Sep-29 14:34N 48°32' W 122°60'0 0.4
2014-Sep-29 13:31N 48°32' W 122°60'0 0.0
2014-Sep-29 12:28N 48°32' W 122°60'0 0.0
2014-Sep-29 11:31N 48°32' W 122°60'0 0.0
2014-Sep-29 10:31N 48°32' W 122°60'0 0.0
2014-Sep-29 09:31N 48°32' W 122°60'0 0.0
2014-Sep-29 08:31N 48°32' W 122°60'0 0.0
2014-Sep-29 07:31N 48°32' W 122°60'0 0.0
2014-Sep-29 06:28N 48°32' W 122°60'0 0.0
2014-Sep-29 05:31N 48°32' W 122°60'0 0.0
2014-Sep-29 04:28N 48°32' W 122°60'0 0.0
2014-Sep-29 03:31N 48°32' W 122°60'0 0.0
2014-Sep-29 02:25N 48°32' W 122°60'0 0.0
2014-Sep-29 01:31N 48°32' W 122°60'0 0.0
2014-Sep-29 00:33N 48°32' W 122°60'0 0.0
2014-Sep-28 23:33N 48°32' W 122°60'0 0.0
2014-Sep-28 22:33N 48°32' W 122°60'0 0.0
2014-Sep-28 21:33N 48°32' W 122°60'0 0.0
2014-Sep-28 20:30N 48°32' W 122°60'0 0.0
2014-Sep-28 19:33N 48°32' W 122°60'0 0.0
2014-Sep-28 18:30N 48°32' W 122°60'0 0.0
2014-Sep-28 17:33N 48°32' W 122°60'0 0.0
2014-Sep-28 16:30N 48°32' W 122°60'0 0.0
2014-Sep-28 15:33N 48°32' W 122°60'0 0.0
2014-Sep-28 14:33N 48°32' W 122°60'0 0.0
2014-Sep-28 13:33N 48°32' W 122°60'0 0.0
2014-Sep-28 12:33N 48°32' W 122°60'0 0.0
2014-Sep-28 11:33N 48°32' W 122°60'0 0.0
2014-Sep-28 10:33N 48°32' W 122°60'0 0.0
2014-Sep-28 09:33N 48°32' W 122°60'0 0.0
2014-Sep-28 08:31N 48°32' W 122°60'0 0.0
2014-Sep-28 07:33N 48°32' W 122°60'0 0.0
2014-Sep-28 06:31N 48°32' W 122°60'0 0.0
2014-Sep-28 05:31N 48°32' W 122°60'0 0.0
2014-Sep-28 04:30N 48°32' W 122°60'0 0.0
2014-Sep-28 03:33N 48°32' W 122°60'0 0.0
2014-Sep-28 02:33N 48°32' W 122°60'0 0.0
2014-Sep-28 01:33N 48°32' W 122°60'0 0.0
2014-Sep-28 00:33N 48°32' W 122°60'0 0.0
2014-Sep-27 23:33N 48°32' W 122°60'0 0.0
2014-Sep-27 22:33N 48°32' W 122°60'0 0.0
2014-Sep-27 21:33N 48°32' W 122°60'0 0.0
2014-Sep-27 20:33N 48°32' W 122°60'0 0.0
2014-Sep-27 19:30N 48°32' W 122°60'0 0.0
2014-Sep-27 18:33N 48°32' W 122°60'0 0.0
2014-Sep-27 17:33N 48°32' W 122°60'0 0.0
2014-Sep-27 16:33N 48°32' W 122°60'0 0.0
2014-Sep-27 15:33N 48°32' W 122°60'0 0.0
2014-Sep-27 14:33N 48°32' W 122°60'0 0.0
2014-Sep-27 13:33N 48°32' W 122°60'0 0.0
2014-Sep-27 12:33N 48°32' W 122°60'0 0.0
2014-Sep-27 11:33N 48°32' W 122°60'0 0.0
2014-Sep-27 10:33N 48°32' W 122°60'0 0.0
2014-Sep-27 09:34N 48°32' W 122°60'0 0.0
2014-Sep-27 08:34N 48°32' W 122°60'0 0.0
2014-Sep-27 07:34N 48°32' W 122°60'0 0.0
2014-Sep-27 06:31N 48°32' W 122°60'0 0.0
2014-Sep-27 05:31N 48°32' W 122°60'0 0.0
2014-Sep-27 04:31N 48°32' W 122°60'0 0.0
2014-Sep-27 03:31N 48°32' W 122°60'0 0.0
2014-Sep-27 02:31N 48°32' W 122°60'0 0.0
2014-Sep-27 01:28N 48°32' W 122°60'0 0.0
2014-Sep-27 00:31N 48°32' W 122°60'0 0.0
2014-Sep-26 23:31N 48°32' W 122°60'0 0.0
2014-Sep-26 22:28N 48°32' W 122°60'0 0.0
2014-Sep-26 21:31N 48°32' W 122°60'0 0.0
2014-Sep-26 20:31N 48°32' W 122°60'0 0.0
2014-Sep-26 19:31N 48°32' W 122°60'0 0.0
2014-Sep-26 18:31N 48°32' W 122°60'0 0.0
2014-Sep-26 17:31N 48°32' W 122°60'0 0.0
2014-Sep-26 16:31N 48°32' W 122°60'0 0.0
2014-Sep-26 15:31N 48°32' W 122°60'0 0.0
2014-Sep-26 14:31N 48°32' W 122°60'0 0.0
2014-Sep-26 13:31N 48°32' W 122°60'0 0.0
2014-Sep-26 12:31N 48°32' W 122°60'0 0.0
2014-Sep-26 11:31N 48°32' W 122°60'0 0.0
2014-Sep-26 10:31N 48°32' W 122°60'0 0.0
2014-Sep-26 09:31N 48°32' W 122°60'0 0.0
2014-Sep-26 08:25N 48°32' W 122°60'0 0.0
2014-Sep-26 07:31N 48°32' W 122°60'0 0.0
2014-Sep-26 06:31N 48°32' W 122°60'0 0.0
2014-Sep-26 05:31N 48°32' W 122°60'0 0.0
2014-Sep-26 04:28N 48°32' W 122°60'0 0.0
2014-Sep-26 03:31N 48°32' W 122°60'0 0.0
2014-Sep-26 02:31N 48°32' W 122°60'2 2.2
2014-Sep-26 01:33N 48°33' W 122°57'5 4.6
2014-Sep-26 00:33N 48°31' W 122°51'2 1.2
2014-Sep-25 23:14N 48°30' W 122°50'4 6.1
2014-Sep-25 22:33N 48°34' W 122°52'6 5.7
2014-Sep-25 21:33N 48°32' W 122°60'2 2.3
2014-Sep-25 20:33N 48°33' W 122°57'5 5.0
2014-Sep-25 19:33N 48°32' W 122°49'7 6.5
2014-Sep-25 18:29N 48°32' W 122°39'1 0.6
2014-Sep-25 17:33N 48°31' W 122°38'6 6.0
2014-Sep-25 16:31N 48°32' W 122°47'4 3.6
2014-Sep-25 15:33N 48°34' W 122°52'5 4.6
2014-Sep-25 14:33N 48°32' W 122°58'1 1.3
2014-Sep-25 13:31N 48°32' W 122°60'0 0.0
2014-Sep-25 12:31N 48°32' W 122°60'0 0.0
2014-Sep-25 11:28N 48°32' W 122°60'0 0.0
2014-Sep-25 10:28N 48°32' W 122°60'0 0.0
2014-Sep-25 09:28N 48°32' W 122°60'0 0.0
2014-Sep-25 08:28N 48°32' W 122°60'0 0.0
2014-Sep-25 07:31N 48°32' W 122°60'0 0.0
2014-Sep-25 06:31N 48°32' W 122°60'0 0.0
2014-Sep-25 05:31N 48°32' W 122°60'0 0.0
2014-Sep-25 04:31N 48°32' W 122°60'0 0.0
2014-Sep-25 03:28N 48°32' W 122°60'0 0.0
2014-Sep-25 02:31N 48°32' W 122°60'0 0.0
2014-Sep-25 01:25N 48°32' W 122°60'0 0.0
2014-Sep-25 00:31N 48°32' W 122°60'0 0.0
2014-Sep-24 23:31N 48°32' W 122°60'0 0.0
2014-Sep-24 22:31N 48°32' W 122°60'1 0.8
2014-Sep-24 21:33N 48°32' W 123°01'2 1.5
2014-Sep-24 20:31N 48°32' W 122°58'0 0.0
2014-Sep-24 19:31N 48°32' W 122°58'0 0.0
2014-Sep-24 18:33N 48°32' W 122°58'1 1.0
2014-Sep-24 17:31N 48°32' W 122°60'0 0.0
2014-Sep-24 16:31N 48°32' W 122°60'0 0.0
2014-Sep-24 15:31N 48°32' W 122°60'0 0.0
2014-Sep-24 14:31N 48°32' W 122°60'0 0.0
2014-Sep-24 13:31N 48°32' W 122°60'0 0.0
2014-Sep-24 12:31N 48°32' W 122°60'0 0.0
2014-Sep-24 11:28N 48°32' W 122°60'0 0.0
2014-Sep-24 10:31N 48°32' W 122°60'0 0.0
2014-Sep-24 09:28N 48°32' W 122°60'0 0.0
2014-Sep-24 08:29N 48°32' W 122°60'0 0.0
2014-Sep-24 07:32N 48°32' W 122°60'0 0.0
2014-Sep-24 06:32N 48°32' W 122°60'0 0.0
2014-Sep-24 05:29N 48°32' W 122°60'0 0.0
2014-Sep-24 04:32N 48°32' W 122°60'0 0.0
2014-Sep-24 03:31N 48°32' W 122°60'0 0.0
2014-Sep-24 02:31N 48°32' W 122°60'0 0.0
2014-Sep-24 01:31N 48°32' W 122°60'0 0.0
2014-Sep-24 00:31N 48°32' W 122°60'0 0.0
2014-Sep-23 23:31N 48°32' W 122°60'0 0.0
2014-Sep-23 22:31N 48°32' W 122°60'0 0.0
2014-Sep-23 21:29N 48°32' W 122°60'0 0.0
2014-Sep-23 20:32N 48°32' W 122°60'4 4.0
2014-Sep-23 19:33N 48°34' W 122°55'5 5.3
2014-Sep-23 18:32N 48°32' W 122°47'7 6.6
2014-Sep-23 17:32N 48°31' W 122°37'3 3.0
2014-Sep-23 16:28N 48°32' W 122°42'7 6.1
2014-Sep-23 15:21N 48°34' W 122°52'5 5.7
2014-Sep-23 14:32N 48°33' W 122°59'1 1.2
2014-Sep-23 13:31N 48°32' W 122°60'0 0.0
2014-Sep-23 12:31N 48°32' W 122°60'0 0.0
2014-Sep-23 11:31N 48°32' W 122°60'0 0.0
2014-Sep-23 10:31N 48°32' W 122°60'0 0.0
2014-Sep-23 09:31N 48°32' W 122°60'0 0.0
2014-Sep-23 08:31N 48°32' W 122°60'0 0.0
2014-Sep-23 07:31N 48°32' W 122°60'0 0.0
2014-Sep-23 06:31N 48°32' W 122°60'0 0.0
2014-Sep-23 05:31N 48°32' W 122°60'0 0.0
2014-Sep-23 04:04N 48°32' W 122°60'0 0.0
2014-Sep-23 03:07N 48°32' W 122°60'0 0.0
2014-Sep-23 02:31N 48°32' W 122°60'0 0.0
2014-Sep-23 01:33N 48°32' W 122°60'0 0.0
2014-Sep-23 00:33N 48°32' W 122°60'2 2.3
2014-Sep-22 23:31N 48°34' W 123°01'6 4.9
2014-Sep-22 22:19N 48°36' W 123°09'7 1.6
2014-Sep-22 18:07N 48°33' W 123°00'1 2.4
2014-Sep-22 17:31N 48°32' W 122°60'0 0.0
2014-Sep-22 16:31N 48°32' W 122°60'0 0.0
2014-Sep-22 15:31N 48°32' W 122°60'0 0.0
2014-Sep-22 14:28N 48°32' W 122°60'0 0.0
2014-Sep-22 13:31N 48°32' W 122°60'0 0.0
2014-Sep-22 12:32N 48°32' W 122°60'0 0.0
2014-Sep-22 11:32N 48°32' W 122°60'0 0.0
2014-Sep-22 10:31N 48°32' W 122°60'0 0.0
2014-Sep-22 09:31N 48°32' W 122°60'0 0.0
2014-Sep-22 08:31N 48°32' W 122°60'0 0.0
2014-Sep-22 07:31N 48°32' W 122°60'0 0.0
2014-Sep-22 06:31N 48°32' W 122°60'0 0.0
2014-Sep-22 05:28N 48°32' W 122°60'0 0.0
2014-Sep-22 04:31N 48°32' W 122°60'0 0.0
2014-Sep-22 03:31N 48°32' W 122°60'0 0.0
2014-Sep-22 02:31N 48°32' W 122°60'0 0.0
2014-Sep-22 01:31N 48°32' W 122°60'0 0.0
2014-Sep-22 00:28N 48°32' W 122°60'0 0.0
2014-Sep-21 23:31N 48°32' W 122°60'0 0.0
2014-Sep-21 22:31N 48°32' W 122°60'0 0.0
2014-Sep-21 21:26N 48°32' W 122°60'0 0.1
2014-Sep-21 20:33N 48°32' W 122°60'  

Dump ship's entire track history